This is the latest recevied weather packets stored in our database for station/object JH7MHZ-13. If no packets are shown the sender has not sent any weather packets the latest 10 day(s).
| Time | Temp. | Humidity | Pressure | Rain* | Wind** | Luminosity | Snow |
|---|---|---|---|---|---|---|---|
| 1787997520 | 21.11° C | 82% | 994.2 hPa | 0 mm | - | - | - |
| 1787993919 | 22.22° C | 79% | 993.5 hPa | 0 mm | - | - | - |
| 1787990318 | 23.33° C | 79% | 993.1 hPa | 0 mm | - | - | - |
| 1787986718 | 24.44° C | 70% | 992.7 hPa | 0 mm | - | - | - |
| 1787984274 | 25.56° C | 68% | 992.7 hPa | 0 mm | - | - | - |
| 1787980674 | 25.56° C | 65% | 992.7 hPa | 0 mm | - | - | - |
| 1787977073 | 26.11° C | 61% | 993.5 hPa | 0 mm | - | - | - |
| 1787976264 | 26.67° C | 65% | 993.5 hPa | 0 mm | - | - | - |
| 1787972661 | 25° C | 65% | 993.7 hPa | 0 mm | - | - | - |
| 1787969061 | 25° C | 65% | 994.1 hPa | 0 mm | - | - | - |
| 1787965460 | 23.89° C | 73% | 994.5 hPa | 0 mm | - | - | - |
| 1787961860 | 22.22° C | 82% | 994.7 hPa | 0 mm | - | - | - |
| 1787958266 | 19.44° C | 93% | 994.7 hPa | 0 mm | - | - | - |
| 1787954659 | 17.78° C | 97% | 994.8 hPa | 0 mm | - | - | - |
| 1787951058 | 17.22° C | 97% | 995.3 hPa | 0 mm | - | - | - |
| 1787947458 | 16.67° C | 97% | 995.4 hPa | 0 mm | - | - | - |
| 1787943857 | 16.67° C | 97% | 995.3 hPa | 0 mm | - | - | - |
| 1787940256 | 16.67° C | 97% | 995.2 hPa | 0 mm | - | - | - |
| 1787936656 | 16.67° C | 97% | 994.7 hPa | 0 mm | - | - | - |
| 1787933055 | 17.22° C | 96% | 994.6 hPa | 0 mm | - | - | - |
| 1787929455 | 17.22° C | 96% | 994.9 hPa | 0 mm | - | - | - |
| 1787925854 | 17.78° C | 96% | 995.4 hPa | 0 mm | - | - | - |
| 1787922254 | 17.78° C | 95% | 994.8 hPa | 0 mm | - | - | - |
| 1787918653 | 17.78° C | 95% | 994.7 hPa | 0 mm | - | - | - |
| 1787915052 | 18.89° C | 92% | 995 hPa | 0 mm | - | - | - |
* Rain latest hour (hover to see other rain measurements)
** Current wind speed in m/s (hover to see current wind gust speed)